Stroh, IN (46789)

1:47 PM EDT on August 28, 2016 (GMT -0400)
Adams Lake | | Change Station

Elev 955 ft 41.56 °N, 85.32 °W | Updated 12 minutes ago

Scattered Clouds
Scattered Clouds
86.2 °F
Feels Like 93 °F
N
2.7
Wind Variable Wind from NNE

Today
High -- | Low -- °F
--% Chance of Precip.
Yesterday
High -- | Low -- °F
Precip. -- in
Pressure 30.22 in
Visibility 10.0 miles
Clouds Few 300 ft
Scattered Clouds 7500 ft
Scattered Clouds 10000 ft
Heat Index 93 °F
Dew Point 72 °F
Humidity 63%
Rainfall 0.00 in
Snow Depth Not available.
7:03 AM 8:19 PM
Waning Crescent, 14% visible
METAR KANQ 281735Z AUTO 15003KT 10SM FEW003 SCT075 SCT100 26/25 A3022 RMK
Pressure 30.22 in
Visibility 10.0 miles
Clouds Few 300 ft
Scattered Clouds 7500 ft
Scattered Clouds 10000 ft
Heat Index 93 °F
Dew Point 72 °F
Humidity 63%
Rainfall 0.00 in
Snow Depth Not available.
7:03 AM 8:19 PM
Waning Crescent, 14% visible
METAR KANQ 281735Z AUTO 15003KT 10SM FEW003 SCT075 SCT100 26/25 A3022 RMK

10-Day Weather Forecast

Almanac

Astronomy

Aug. 28, 2016 Rise Set
Actual Time
Civil Twilight
Nautical Twilight
Astronomical Twilight
Moon
Length of Visible Light
Length of Day
Tomorrow will be .
, % of the Moon is Illuminated

Today's Extremes

State Highs State Lows

Community

WunderPhotos

Upload Photos

1,935,639 photos uploaded!

WunderBlog® & News

Nearby

Air Quality

  Air Quality AQ Index Pollutant
Not available.

Snow Depth

Station Depth Elevation

Earthquake Activity

City Distance Mag. Time & Date
Minimum magnitude displayed is 2.5.

Coastal Water Temperatures

Place Temperature

Stations

Nearby Weather Stations

Station Location Temp. Windchill Dew Point Humidity Wind Precip. Elev Updated Type
                   

Watches & Warnings

There are currently no watches in effect.